CheckWX is a tool to help pilots better visualize weather data.  It is not intended as a substitute for an official pre-flight weather briefing.

19:36:23 UTC

KSGJ TAF
Northeast Florida Regional Airport
St Augustine, Florida, USA
KSGJ 272320Z 2800/2824 15007KT P6SM SCT030 BKN050 FM280200 22003KT P6SM SCT050 FM281300 20007KT P6SM SCT030 FM281600 13012KT P6SM VCTS BKN040CB

May-28@
00:00 UTC

May-28 @ 00:00 UTC

May-28@
02:00 UTC

May-28 @ 02:00 UTC

TAF KSGJ 272320Z 2800/2824 15007KT P6SM SCT030 BKN050

Expired

Wind
  • 150° at 7 KTS
Cloud Levels
  • Scattered at 3,000' AGL
  • Broken at 5,000' AGL

May-28@
02:00 UTC

May-28 @ 02:00 UTC

May-28@
13:00 UTC

May-28 @ 13:00 UTC

FM280200 22003KT P6SM SCT050

Expired

Wind
  • 220° at 3 KTS
Cloud Levels
  • Scattered at 5,000' AGL

May-28@
13:00 UTC

May-28 @ 13:00 UTC

May-28@
16:00 UTC

May-28 @ 16:00 UTC

FM281300 20007KT P6SM SCT030

Expired

Wind
  • 200° at 7 KTS
Cloud Levels
  • Scattered at 3,000' AGL

May-28@
16:00 UTC

May-28 @ 16:00 UTC

May-29@
00:00 UTC

May-29 @ 00:00 UTC

FM281600 13012KT P6SM VCTS BKN040CB

From

From Standard forecast or significant change

Wind
  • 130° at 12 KTS
Conditions
Area Thunderstorm
Cloud Levels
  • Broken at 4,000' AGL